Pagina principale
METAR-TAF:

METAR-TAF

Aeroporti :

Sabadell, Spagna

latitudine: 41-31N, longitudine: 002-06E, altezza: 250 m

Osservazione

Il bollettino è stato emesso 43 minuti fa, alle 00:00 UTC
Vento 3 kt da ovest
Temperature 16°C
Umidità 88%
Pressione 1016 hPa
Visibilità 10 km o più
nessuna nube inferiore a 1500 m e nessun cumulonembo

METAR: LELL 310000Z AUTO 27003KT CAVOK 16/14 Q1016

Ora: 02:43 (00:43 UTC)

Previsione

Il bollettino è stato emesso 10 ore e 43 minuti fa, alle 14:00 UTC
Previsione valida dal 30 alle 15 UTC al 31 alle 15 UTC
Vento 10 kt da est/sud-est
Visibilità 10 km o più
Nubi sparse ad un'altezza di 2000 ft
Evoluzione graduale
dal 30 alle 19 UTC al 30 alle 21 UTC
Vento 3 kt da direzioni variabili
Evoluzione graduale
dal 31 alle 10 UTC al 31 alle 12 UTC
Vento 10 kt da sud/sud-ovest

TAF: LELL 301400Z 3015/3115 12010KT 9999 SCT020 TX27/3112Z TN14/3106Z BECMG 3019/3021 VRB03KT BECMG 3110/3112 20010KT

Osservazioni e previsioni meteorologiche di più di 4000 aeroporti (messaggi METAR e TAF).

Le stazioni disponibili sono rappresentate dai dischi gialli e rossi sulla carta.

Puntare il mouse per vedere il nome della stazione.

Clicca sopra per visualizzare le osservazioni e previsioni meteorologiche.

Per cambiare la mappa : fare clic sui pulsanti verdi con una croce nera per ingrandire, il pulsante verde con un trattino per diminuire, o sulla freccia verde per le mappe adiacenti.


METAR-TAF: